Time;durP1;ratioP1;P1;durP2;ratioP2;P2;SDS_P1;SDS_P2;PMS_P1;PMS_P2;Temp;Humidity;BMP_temperature;BMP_pressure;BME280_temperature;BME280_humidity;BME280_pressure;Samples;Min_cycle;Max_cycle;Signal;HPM_P1;HPM_P2
2021/11/23 00:01:19;;;;;;;9.75;7.32;;;6.10;77.70;;;5.26;63.99;95657.28;4944937;28;20194;-81
2021/11/23 00:03:47;;;;;;;9.98;7.43;;;6.20;77.80;;;5.27;63.76;95668.50;4928163;28;20244;-81
2021/11/23 00:06:15;;;;;;;9.25;7.50;;;6.10;77.70;;;5.28;63.84;95667.53;4959641;28;20261;-81
2021/11/23 00:08:42;;;;;;;9.55;8.07;;;6.10;77.70;;;5.27;64.07;95668.50;4942950;28;20230;-81
2021/11/23 00:11:10;;;;;;;8.52;7.63;;;6.10;77.60;;;5.23;63.75;95669.75;4943384;28;20194;-81
2021/11/23 00:13:37;;;;;;;8.52;7.00;;;6.10;77.60;;;5.27;64.22;95673.69;4943389;28;20641;-82
2021/11/23 00:16:05;;;;;;;9.43;7.65;;;6.10;77.70;;;5.27;63.81;95684.09;4943484;28;20213;-81
2021/11/23 00:18:33;;;;;;;9.32;8.00;;;6.10;77.70;;;5.22;64.15;95679.31;4943150;28;20242;-81
2021/11/23 00:21:00;;;;;;;8.02;7.00;;;6.00;77.60;;;5.26;63.83;95692.84;4943554;28;20249;-81
2021/11/23 00:23:28;;;;;;;9.82;7.47;;;6.00;77.60;;;5.24;64.06;95698.19;4943202;28;20231;-82
2021/11/23 00:25:55;;;;;;;9.13;7.60;;;6.10;77.60;;;5.20;64.05;95689.06;4943638;28;20226;-82
2021/11/23 00:28:22;;;;;;;8.50;7.50;;;6.10;77.60;;;5.20;63.89;95699.44;4958512;28;20219;-82
2021/11/23 00:30:49;;;;;;;8.55;7.47;;;6.10;77.60;;;5.21;63.73;95693.28;4943262;28;20234;-82
2021/11/23 00:33:16;;;;;;;10.65;8.20;;;6.10;77.50;;;5.17;64.09;95698.91;4927244;28;20203;-81
2021/11/23 00:35:45;;;;;;;10.93;8.00;;;6.00;77.50;;;5.19;63.95;95707.38;4943369;28;20195;-82
2021/11/23 00:38:15;;;;;;;11.07;8.27;;;6.00;77.50;;;5.17;63.57;95706.72;4943731;28;20206;-82
2021/11/23 00:40:43;;;;;;;9.40;8.00;;;6.00;77.40;;;5.16;63.68;95708.47;4943172;28;20202;-82
2021/11/23 00:43:10;;;;;;;8.75;7.85;;;6.00;77.30;;;5.13;64.03;95711.38;4942870;28;20226;-82
2021/11/23 00:45:40;;;;;;;8.57;7.68;;;6.00;77.30;;;5.10;63.61;95714.22;4959061;28;20191;-81
2021/11/23 00:48:09;;;;;;;10.23;8.43;;;6.00;77.20;;;5.06;63.56;95711.06;4958775;28;20231;-81
2021/11/23 00:50:37;;;;;;;8.70;7.55;;;5.90;77.10;;;5.00;63.28;95716.84;4943045;28;20202;-82
2021/11/23 00:53:04;;;;;;;9.27;8.07;;;5.90;77.00;;;4.97;63.19;95711.91;4942890;28;20253;-82
2021/11/23 00:55:32;;;;;;;9.35;8.30;;;5.90;77.00;;;4.92;63.30;95717.53;4942385;28;20247;-81
2021/11/23 00:58:00;;;;;;;8.68;7.78;;;5.80;76.90;;;4.91;63.51;95726.28;4942510;28;20205;-81
2021/11/23 01:00:27;;;;;;;10.70;7.40;;;5.90;77.00;;;4.88;63.69;95725.72;4923045;29;20224;-82
2021/11/23 01:02:57;;;;;;;7.47;6.60;;;5.80;76.90;;;4.85;63.37;95715.63;4932297;28;20219;-81
2021/11/23 01:05:26;;;;;;;8.13;7.10;;;5.80;76.90;;;4.83;63.27;95725.31;4958654;28;20720;-82
2021/11/23 01:07:53;;;;;;;7.25;6.50;;;5.70;76.90;;;4.79;63.54;95722.16;4942697;28;20301;-82
2021/11/23 01:10:20;;;;;;;7.43;6.25;;;5.70;76.90;;;4.78;63.39;95728.31;4927007;28;20246;-81
2021/11/23 01:12:49;;;;;;;6.57;5.78;;;5.70;76.90;;;4.78;63.21;95728.31;4942774;28;20210;-82
2021/11/23 01:15:16;;;;;;;6.57;5.82;;;5.70;76.80;;;4.74;63.17;95722.56;4942540;28;20251;-81
2021/11/23 01:17:43;;;;;;;7.53;6.30;;;5.60;76.70;;;4.74;63.19;95716.56;4942220;28;20298;-80
2021/11/23 01:20:11;;;;;;;6.88;6.00;;;5.60;76.90;;;4.73;63.30;95720.13;4942083;28;20230;-80
2021/11/23 01:22:41;;;;;;;6.63;5.93;;;5.60;76.80;;;4.74;63.32;95726.97;4942059;28;20293;-81
2021/11/23 01:25:09;;;;;;;6.50;5.57;;;5.60;76.80;;;4.71;63.05;95720.25;4942151;28;20218;-82
2021/11/23 01:27:37;;;;;;;6.80;6.03;;;5.60;76.80;;;4.71;62.95;95716.81;4923255;29;20200;-81
2021/11/23 01:30:07;;;;;;;6.93;6.18;;;5.60;76.90;;;4.70;63.08;95718.59;4939047;29;20212;-82
2021/11/23 01:32:34;;;;;;;6.72;5.72;;;5.60;76.90;;;4.72;63.15;95715.88;4923134;29;20203;-82
2021/11/23 01:35:03;;;;;;;6.15;5.50;;;5.60;76.90;;;4.70;62.68;95722.97;4929274;28;20234;-80
2021/11/23 01:37:30;;;;;;;6.82;6.13;;;5.50;76.80;;;4.67;63.44;95713.66;4938542;28;20282;-82
2021/11/23 01:39:57;;;;;;;8.30;6.00;;;5.50;76.90;;;4.71;63.32;95719.41;4939430;28;20304;-81
2021/11/23 01:42:25;;;;;;;7.60;6.80;;;5.60;76.90;;;4.69;63.36;95711.78;4939715;28;20230;-80
2021/11/23 01:44:52;;;;;;;9.35;7.13;;;5.50;76.80;;;4.69;63.39;95718.72;4939597;28;20356;-81
2021/11/23 01:47:20;;;;;;;8.95;7.72;;;5.50;76.80;;;4.66;62.89;95717.22;4955284;28;20191;-80
2021/11/23 01:49:47;;;;;;;8.88;7.68;;;5.60;76.80;;;4.63;62.99;95717.50;4935580;28;20226;-81
2021/11/23 01:52:15;;;;;;;9.10;7.15;;;5.50;76.70;;;4.61;63.32;95719.41;4939593;28;20274;-81
2021/11/23 01:54:42;;;;;;;7.30;6.53;;;5.50;76.80;;;4.60;63.34;95722.97;4938254;28;20222;-82
2021/11/23 01:57:10;;;;;;;8.18;7.20;;;5.50;76.80;;;4.57;63.06;95723.25;4939523;28;20205;-82
2021/11/23 01:59:37;;;;;;;8.07;7.28;;;5.50;76.80;;;4.55;63.18;95712.16;4939395;28;20245;-82
2021/11/23 02:02:04;;;;;;;8.02;7.20;;;5.50;76.70;;;4.53;62.86;95720.09;4939807;28;20203;-81
2021/11/23 02:04:32;;;;;;;8.68;7.30;;;5.40;76.80;;;4.47;63.03;95710.25;4938997;28;20245;-82
2021/11/23 02:06:59;;;;;;;8.15;7.28;;;5.40;76.70;;;4.46;63.22;95719.78;4939514;28;20609;-81
2021/11/23 02:09:26;;;;;;;7.88;7.05;;;5.40;76.60;;;4.42;62.67;95721.03;4938513;28;20222;-82
2021/11/23 02:11:54;;;;;;;7.60;6.80;;;5.40;76.60;;;4.36;62.93;95718.13;4939602;28;20734;-82
2021/11/23 02:14:22;;;;;;;9.07;7.63;;;5.30;76.40;;;4.28;62.95;95721.41;4940157;28;20304;-82
2021/11/23 02:16:49;;;;;;;8.40;7.50;;;5.30;76.30;;;4.12;62.77;95712.31;4939264;28;20579;-83
2021/11/23 02:19:17;;;;;;;8.43;7.22;;;5.40;76.20;;;4.08;62.70;95726.53;4939753;28;20313;-82
2021/11/23 02:21:44;;;;;;;7.95;7.13;;;5.20;76.00;;;3.98;62.30;95730.88;4939640;28;20198;-81
2021/11/23 02:24:11;;;;;;;9.57;7.28;;;5.10;75.80;;;3.85;62.77;95724.09;4940024;28;20227;-81
2021/11/23 02:26:39;;;;;;;7.97;6.85;;;5.10;75.70;;;3.71;62.69;95726.22;4940532;28;20194;-82
2021/11/23 02:29:06;;;;;;;7.63;6.85;;;5.00;75.60;;;3.57;62.49;95723.03;4935457;29;20219;-82
2021/11/23 02:31:34;;;;;;;8.48;7.18;;;4.80;75.40;;;3.42;62.54;95719.09;4936095;29;20207;-81
2021/11/23 02:34:01;;;;;;;8.05;6.93;;;4.80;75.50;;;3.24;62.45;95718.88;4951806;28;20219;-82
2021/11/23 02:36:29;;;;;;;7.40;6.70;;;4.70;75.40;;;3.14;62.50;95718.81;4956751;28;20263;-82
2021/11/23 02:38:56;;;;;;;6.88;6.18;;;4.50;75.30;;;2.94;62.69;95710.88;4939112;28;20803;-81
2021/11/23 02:41:23;;;;;;;8.60;7.47;;;4.40;75.40;;;2.88;62.76;95732.94;4938521;28;20579;-81
2021/11/23 02:43:50;;;;;;;7.70;6.78;;;4.30;75.30;;;2.76;62.72;95735.66;4940361;28;20317;-81
2021/11/23 02:46:19;;;;;;;7.22;6.53;;;4.20;75.40;;;2.61;63.00;95729.94;4956304;28;20187;-81
2021/11/23 02:48:46;;;;;;;9.25;7.22;;;4.10;75.40;;;2.55;63.04;95741.59;4956570;28;20725;-81
2021/11/23 02:51:15;;;;;;;9.55;6.95;;;4.00;75.50;;;2.45;63.05;95738.13;4924980;28;20302;-82
2021/11/23 02:53:50;;;;;;;7.68;6.55;;;3.90;75.70;;;2.36;63.07;95743.06;4940864;28;20245;-81
2021/11/23 02:56:18;;;;;;;8.70;7.25;;;3.80;75.90;;;2.28;63.13;95739.44;4956449;28;20190;-81
2021/11/23 02:58:49;;;;;;;9.73;7.30;;;3.70;75.80;;;2.21;63.49;95750.28;4940687;28;20211;-81
2021/11/23 03:01:21;;;;;;;10.27;7.88;;;3.60;75.80;;;2.15;63.74;95744.72;4940501;28;20205;-81
2021/11/23 03:03:50;;;;;;;9.38;8.23;;;3.50;75.90;;;2.10;63.93;95757.22;4940722;28;20685;-80
2021/11/23 03:06:18;;;;;;;11.55;8.90;;;3.50;76.20;;;2.02;64.24;95744.88;4924820;28;20202;-81
2021/11/23 03:08:46;;;;;;;10.52;8.70;;;3.40;76.20;;;2.04;64.48;95753.34;4940126;28;20233;-81
2021/11/23 03:11:16;;;;;;;8.90;8.00;;;3.40;76.40;;;2.03;64.56;95756.88;4940426;28;20289;-80
2021/11/23 03:13:44;;;;;;;11.32;9.02;;;3.30;76.50;;;2.02;64.93;95761.22;4941053;28;20218;-81
2021/11/23 03:16:11;;;;;;;8.73;7.82;;;3.30;76.70;;;2.04;64.93;95761.94;4940374;28;20285;-81
2021/11/23 03:18:39;;;;;;;9.70;7.30;;;3.30;76.90;;;2.06;64.86;95765.22;4940412;28;20223;-81
2021/11/23 03:21:06;;;;;;;9.77;8.23;;;3.20;76.90;;;2.10;65.02;95760.63;4939454;28;20642;-80
2021/11/23 03:23:33;;;;;;;10.88;9.30;;;3.20;77.10;;;2.12;65.84;95761.31;4940145;28;20262;-81
2021/11/23 03:26:02;;;;;;;13.57;9.50;;;3.30;77.40;;;2.16;65.93;95767.09;4956366;28;20294;-81
2021/11/23 03:28:29;;;;;;;13.55;9.80;;;3.30;77.50;;;2.14;65.77;95751.69;4955863;28;20199;-81
2021/11/23 03:30:56;;;;;;;13.27;10.27;;;3.30;77.50;;;2.19;65.82;95757.31;4940412;28;20191;-80
2021/11/23 03:33:23;;;;;;;14.15;9.65;;;3.30;77.50;;;2.19;65.71;95749.56;4955837;28;20206;-81
2021/11/23 03:35:53;;;;;;;11.75;9.25;;;3.30;77.50;;;2.20;65.49;95753.00;4940809;28;20198;-81
2021/11/23 03:38:21;;;;;;;13.70;10.35;;;3.30;77.50;;;2.20;65.31;95742.63;4939936;28;20294;-81
2021/11/23 03:40:48;;;;;;;12.60;9.93;;;3.30;77.50;;;2.18;65.89;95741.91;4936835;29;20223;-81
2021/11/23 03:43:16;;;;;;;15.35;11.88;;;3.30;77.60;;;2.16;65.83;95742.03;4952589;28;20732;-80
2021/11/23 03:45:44;;;;;;;16.50;11.23;;;3.30;77.70;;;2.17;65.75;95743.69;4921181;29;20276;-80
2021/11/23 03:48:11;;;;;;;13.70;10.48;;;3.30;77.70;;;2.16;65.35;95747.22;4937107;28;20200;-80
2021/11/23 03:50:39;;;;;;;14.75;10.77;;;3.30;77.70;;;2.17;65.56;95748.88;4937955;28;20670;-80
2021/11/23 03:53:06;;;;;;;14.38;10.57;;;3.30;77.70;;;2.16;65.76;95746.38;4955556;28;20699;-81
2021/11/23 03:55:36;;;;;;;14.02;10.02;;;3.30;77.70;;;2.15;65.53;95743.00;4939805;28;20715;-81
2021/11/23 03:58:04;;;;;;;13.65;10.00;;;3.30;77.80;;;2.16;65.39;95755.00;4940346;28;20206;-80
2021/11/23 04:00:31;;;;;;;14.07;9.80;;;3.20;77.60;;;2.10;65.56;95741.69;4936668;29;20307;-81
2021/11/23 04:02:58;;;;;;;14.23;10.50;;;3.20;77.60;;;2.10;65.07;95749.44;4952662;29;20210;-81
2021/11/23 04:05:26;;;;;;;12.90;9.40;;;3.20;77.60;;;2.10;65.20;95754.63;4936482;29;20596;-81
2021/11/23 04:07:53;;;;;;;12.25;8.95;;;3.20;77.60;;;2.08;65.47;95758.16;4936886;29;20622;-81
2021/11/23 04:10:21;;;;;;;12.32;9.15;;;3.20;77.60;;;2.05;65.25;95750.63;4952629;28;20221;-81
2021/11/23 04:12:51;;;;;;;12.25;9.18;;;3.20;77.60;;;2.05;65.14;95758.41;4952341;29;20211;-81
2021/11/23 04:15:18;;;;;;;11.95;9.13;;;3.20;77.60;;;2.06;65.07;95754.88;4968622;28;20326;-81
2021/11/23 04:17:46;;;;;;;11.38;8.43;;;3.20;77.60;;;2.04;65.08;95755.94;4955783;28;20662;-81
2021/11/23 04:20:14;;;;;;;11.48;8.90;;;3.10;77.60;;;2.06;65.21;95754.03;4943356;28;20230;-81
2021/11/23 04:22:41;;;;;;;10.80;8.25;;;3.10;77.60;;;2.06;65.02;95756.63;4939528;29;20199;-81
2021/11/23 04:25:11;;;;;;;13.18;9.60;;;3.10;77.60;;;2.07;65.40;95760.88;4923816;29;20227;-81
2021/11/23 04:27:39;;;;;;;14.48;8.93;;;3.10;77.60;;;2.05;65.18;95758.41;4939959;29;20693;-80
2021/11/23 04:30:08;;;;;;;12.15;8.63;;;3.10;78.40;;;2.03;65.10;95764.63;4947676;28;20233;-80
2021/11/23 04:32:35;;;;;;;12.25;9.15;;;3.10;77.50;;;1.97;64.72;95762.53;4943035;28;20218;-81
2021/11/23 04:35:05;;;;;;;11.35;8.27;;;3.10;77.50;;;1.98;65.03;95771.91;4942993;28;20265;-81
2021/11/23 04:37:32;;;;;;;12.40;8.88;;;3.10;77.50;;;1.97;64.81;95776.28;4959148;28;20380;-80
2021/11/23 04:39:59;;;;;;;12.73;9.05;;;3.10;77.50;;;1.92;65.16;95776.63;4942371;28;20711;-80
2021/11/23 04:42:26;;;;;;;13.45;8.50;;;3.10;77.50;;;1.96;65.21;95782.38;4942818;28;20234;-81
2021/11/23 04:44:53;;;;;;;12.38;7.28;;;3.10;77.60;;;1.98;65.19;95782.25;4940630;28;20310;-80
2021/11/23 04:47:21;;;;;;;9.95;8.18;;;3.10;77.70;;;1.99;65.21;95774.41;4955744;28;20255;-79
2021/11/23 04:49:48;;;;;;;12.30;8.57;;;3.00;77.60;;;1.98;65.23;95769.31;4955793;28;20246;-81
2021/11/23 04:52:15;;;;;;;11.52;8.10;;;3.10;77.70;;;1.95;64.84;95772.97;4940865;28;20645;-80
2021/11/23 04:54:42;;;;;;;10.75;8.38;;;3.10;77.60;;;1.88;64.82;95761.44;4938611;28;20211;-80
2021/11/23 04:57:10;;;;;;;12.27;8.20;;;3.10;77.50;;;1.87;64.72;95768.38;4954525;28;20202;-80
2021/11/23 04:59:37;;;;;;;12.30;8.68;;;3.10;77.40;;;1.82;64.65;95773.09;4937913;28;20726;-81
2021/11/23 05:02:04;;;;;;;11.88;8.73;;;3.00;77.30;;;1.78;65.00;95770.84;4938829;28;20206;-80
2021/11/23 05:04:32;;;;;;;12.45;9.63;;;3.00;77.20;;;1.65;65.04;95758.00;4938499;28;20223;-80
2021/11/23 05:07:00;;;;;;;16.05;9.80;;;2.90;77.20;;;1.67;65.36;95769.91;4954940;28;20532;-80
2021/11/23 05:09:27;;;;;;;16.48;10.05;;;2.90;77.20;;;1.61;65.39;95770.34;4955059;28;20649;-80
2021/11/23 05:11:54;;;;;;;14.90;10.23;;;2.90;77.40;;;1.58;65.54;95775.75;4937076;29;20203;-80
2021/11/23 05:14:22;;;;;;;15.85;11.25;;;2.90;77.40;;;1.54;65.72;95772.56;4956084;28;20270;-80
2021/11/23 05:16:50;;;;;;;15.15;10.60;;;2.80;77.40;;;1.53;65.66;95778.69;4954676;29;20204;-81
2021/11/23 05:19:18;;;;;;;16.70;11.10;;;2.80;77.40;;;1.50;65.55;95780.66;4943898;28;20218;-81
2021/11/23 05:21:45;;;;;;;17.70;11.27;;;2.80;77.50;;;1.49;66.11;95776.44;4942485;28;20215;-81
2021/11/23 05:24:13;;;;;;;17.88;12.02;;;2.70;77.50;;;1.47;66.00;95771.38;4957264;28;20232;-80
2021/11/23 05:26:42;;;;;;;15.55;11.00;;;2.70;77.60;;;1.48;65.93;95777.38;4942171;28;20237;-80
2021/11/23 05:29:13;;;;;;;14.70;10.38;;;2.70;77.70;;;1.49;65.75;95781.59;4940970;28;20301;-80
2021/11/23 05:31:41;;;;;;;14.88;9.73;;;2.70;77.60;;;1.42;65.90;95779.47;4942498;28;20253;-82
2021/11/23 05:34:08;;;;;;;12.45;9.20;;;2.70;77.70;;;1.48;65.97;95788.56;4942156;28;20226;-81
2021/11/23 05:36:36;;;;;;;13.52;9.77;;;2.60;77.80;;;1.50;65.81;95791.00;4958129;28;20223;-81
2021/11/23 05:39:04;;;;;;;14.05;9.43;;;2.70;77.90;;;1.54;65.96;95800.22;4957983;28;20242;-81
2021/11/23 05:41:33;;;;;;;13.90;9.43;;;2.70;78.00;;;1.56;65.94;95804.31;4941318;28;21373;-81
2021/11/23 05:44:01;;;;;;;13.93;9.90;;;2.60;77.90;;;1.59;65.66;95804.06;4941374;28;20221;-81
2021/11/23 05:46:28;;;;;;;15.30;10.30;;;2.70;78.00;;;1.62;65.96;95807.38;4941613;28;20199;-80
2021/11/23 05:48:56;;;;;;;16.10;11.02;;;2.70;78.10;;;1.64;66.02;95813.28;4941184;28;20230;-81
2021/11/23 05:51:23;;;;;;;18.27;10.88;;;2.70;78.10;;;1.66;65.93;95807.06;4941640;28;20342;-81
2021/11/23 05:53:51;;;;;;;15.30;10.57;;;2.70;78.20;;;1.70;65.88;95816.22;4941909;28;20211;-83
2021/11/23 05:56:19;;;;;;;15.80;10.20;;;2.70;78.20;;;1.73;65.54;95817.75;4941074;28;20657;-81
2021/11/23 05:58:46;;;;;;;13.57;10.15;;;2.70;78.20;;;1.76;65.91;95814.94;4925556;28;20242;-80
2021/11/23 06:01:13;;;;;;;14.93;9.45;;;2.70;78.20;;;1.74;65.65;95809.88;4940889;28;20222;-81
2021/11/23 06:03:42;;;;;;;12.20;8.82;;;2.80;78.30;;;1.80;65.64;95818.94;4941736;28;20261;-80
2021/11/23 06:06:11;;;;;;;12.55;8.70;;;2.80;78.10;;;1.80;65.41;95815.53;4941389;28;20230;-81
2021/11/23 06:08:38;;;;;;;14.52;9.77;;;2.80;78.00;;;1.76;65.29;95813.16;4957092;28;20233;-81
2021/11/23 06:11:06;;;;;;;15.32;9.98;;;2.80;77.90;;;1.72;65.25;95811.75;4955435;28;20245;-80
2021/11/23 06:13:34;;;;;;;13.73;9.70;;;2.80;77.80;;;1.73;64.98;95812.56;4939627;28;20309;-81
2021/11/23 06:16:02;;;;;;;13.63;9.70;;;2.80;77.80;;;1.67;65.50;95808.69;4941360;28;20191;-81
2021/11/23 06:18:29;;;;;;;14.05;9.77;;;2.80;77.70;;;1.64;64.81;95808.09;4940416;28;20210;-81
2021/11/23 06:20:56;;;;;;;12.98;10.00;;;2.80;77.60;;;1.56;65.07;95819.00;4941024;28;20198;-81
2021/11/23 06:23:25;;;;;;;15.25;10.93;;;2.70;77.40;;;1.51;65.11;95808.19;4941425;28;20194;-81
2021/11/23 06:25:57;;;;;;;17.38;12.55;;;2.70;77.40;;;1.40;64.74;95802.06;4956830;28;20226;-80
2021/11/23 06:28:26;;;;;;;27.95;17.92;;;2.70;77.40;;;1.32;65.41;95794.03;4957210;28;20187;-81
2021/11/23 06:30:54;;;;;;;20.77;14.45;;;2.60;77.30;;;1.31;65.18;95815.63;4956992;28;20203;-81
2021/11/23 06:33:21;;;;;;;20.90;13.95;;;2.60;77.20;;;1.24;65.08;95810.06;4972849;28;20259;-80
2021/11/23 06:35:49;;;;;;;23.38;15.55;;;2.50;78.00;;;1.20;64.89;95816.41;4949399;28;20198;-81
2021/11/23 06:38:16;;;;;;;26.27;17.77;;;2.50;77.30;;;1.18;65.31;95815.69;4941159;28;20209;-80
2021/11/23 06:40:46;;;;;;;17.83;12.20;;;2.50;77.40;;;1.18;65.59;95823.44;4956770;28;20204;-81
2021/11/23 06:43:14;;;;;;;17.42;12.43;;;2.40;77.50;;;1.16;65.83;95827.91;4940241;28;20202;-81
2021/11/23 06:45:42;;;;;;;19.85;13.20;;;2.40;77.70;;;1.14;66.14;95826.38;4956867;28;20222;-80
2021/11/23 06:48:10;;;;;;;16.63;11.90;;;2.40;77.80;;;1.17;66.19;95819.22;4940500;28;20198;-81
2021/11/23 06:50:40;;;;;;;18.30;12.25;;;2.40;77.90;;;1.21;66.08;95823.25;4956569;28;20207;-80
2021/11/23 06:53:11;;;;;;;18.73;12.82;;;2.40;77.90;;;1.21;66.15;95828.41;4956763;28;20218;-80
2021/11/23 06:55:41;;;;;;;15.93;11.95;;;2.40;77.90;;;1.23;66.48;95829.13;4940867;28;20202;-82
2021/11/23 06:58:09;;;;;;;20.00;12.77;;;2.40;78.00;;;1.22;66.14;95832.66;4940583;28;20221;-81
2021/11/23 07:00:39;;;;;;;19.10;11.55;;;2.40;77.90;;;1.21;66.10;95843.91;4940645;28;20711;-81
2021/11/23 07:03:08;;;;;;;18.15;11.82;;;2.40;77.90;;;1.18;65.89;95841.53;4940286;28;20237;-81
2021/11/23 07:05:36;;;;;;;17.48;11.35;;;2.40;77.90;;;1.23;66.09;95847.22;4939904;28;20223;-81
2021/11/23 07:08:23;;;;;;;18.13;11.68;;;2.40;78.00;;;1.24;66.30;95855.78;4942440;28;20190;-81
2021/11/23 07:10:50;;;;;;;16.95;11.85;;;2.40;78.00;;;1.25;66.30;95860.84;4940651;28;20254;-82
2021/11/23 07:13:17;;;;;;;19.02;12.88;;;2.40;78.10;;;1.23;66.17;95862.72;4940886;28;20202;-82
2021/11/23 07:15:46;;;;;;;19.50;13.18;;;2.40;78.10;;;1.26;66.47;95861.69;4924845;28;20297;-81
2021/11/23 07:18:14;;;;;;;18.92;12.80;;;2.40;78.20;;;1.28;66.32;95857.19;4924761;28;20195;-81
2021/11/23 07:20:41;;;;;;;18.35;11.80;;;2.40;78.20;;;1.32;66.41;95870.72;4924848;28;20714;-81
2021/11/23 07:23:08;;;;;;;18.45;12.85;;;2.40;78.20;;;1.33;66.55;95872.38;4924986;28;20257;-82
2021/11/23 07:25:35;;;;;;;18.42;12.38;;;2.40;78.30;;;1.36;66.26;95867.00;4956692;28;20226;-82
2021/11/23 07:28:04;;;;;;;19.98;13.30;;;2.40;78.30;;;1.38;66.70;95870.28;4940457;28;20237;-82
2021/11/23 07:30:31;;;;;;;18.05;12.55;;;2.50;78.50;;;1.40;66.53;95858.06;4940987;28;20561;-83
2021/11/23 07:33:04;;;;;;;17.65;12.30;;;2.50;78.50;;;1.53;66.58;95876.13;4941052;28;20571;-82
2021/11/23 07:35:31;;;;;;;18.08;12.70;;;2.50;78.60;;;1.59;66.46;95876.47;4936474;29;20223;-81
2021/11/23 07:37:59;;;;;;;19.30;12.05;;;2.50;78.70;;;1.69;66.66;95875.81;4956203;28;20224;-83
2021/11/23 07:40:27;;;;;;;17.10;12.00;;;2.60;78.90;;;1.78;65.99;95879.47;4924902;28;20265;-82
2021/11/23 07:42:56;;;;;;;15.82;10.77;;;2.60;78.80;;;1.80;66.06;95873.25;4940433;28;20226;-83
2021/11/23 07:45:38;;;;;;;19.55;11.93;;;2.70;78.70;;;1.87;66.01;95881.41;4942236;28;20666;-82
2021/11/23 07:48:06;;;;;;;17.27;12.07;;;2.70;78.60;;;1.84;65.97;95877.25;4940032;28;20779;-82
2021/11/23 07:50:33;;;;;;;19.85;12.43;;;2.70;78.50;;;1.88;65.81;95894.22;4945398;28;20242;-82
2021/11/23 07:53:00;;;;;;;18.08;12.45;;;2.80;78.50;;;1.88;66.05;95888.19;4959215;28;20229;-82
2021/11/23 07:55:27;;;;;;;17.60;12.27;;;2.80;79.30;;;1.87;65.87;95884.78;4959452;28;20301;-83
2021/11/23 07:57:56;;;;;;;16.90;12.32;;;2.80;78.50;;;1.97;66.12;95892.69;4934296;28;20241;-81
2021/11/23 08:00:23;;;;;;;19.40;12.65;;;2.90;78.60;;;2.00;65.94;95887.31;4949616;29;20253;-82
2021/11/23 08:02:51;;;;;;;19.83;12.40;;;2.90;78.60;;;2.06;66.24;95892.03;4909114;28;20259;-82
2021/11/23 08:05:18;;;;;;;16.55;11.13;;;2.90;78.60;;;2.13;65.76;95889.78;4959608;28;20227;-82
2021/11/23 08:07:45;;;;;;;16.35;10.50;;;3.00;78.80;;;2.13;65.67;95882.03;4957943;28;20223;-82
2021/11/23 08:10:13;;;;;;;15.93;10.90;;;3.00;78.70;;;2.24;65.83;95892.38;4958231;28;20285;-83
2021/11/23 08:12:40;;;;;;;13.63;9.60;;;3.00;78.70;;;2.31;65.58;95894.53;4974881;28;20199;-83
2021/11/23 08:15:08;;;;;;;13.05;9.80;;;3.10;78.70;;;2.30;65.63;95888.50;4958689;28;20568;-83
2021/11/23 08:17:35;;;;;;;15.80;10.15;;;3.10;78.50;;;2.35;65.18;95891.56;4943671;28;20246;-83
2021/11/23 08:20:04;;;;;;;14.15;10.35;;;3.20;78.60;;;2.35;64.99;95886.41;4943365;28;20591;-83
2021/11/23 08:22:33;;;;;;;15.68;10.32;;;3.20;78.40;;;2.32;65.37;95884.06;4944197;28;20199;-83
2021/11/23 08:25:00;;;;;;;14.07;10.68;;;3.20;78.40;;;2.37;65.52;95889.69;4943575;28;20229;-83
2021/11/23 08:27:28;;;;;;;13.95;9.32;;;3.30;78.40;;;2.42;65.27;95891.94;4943324;28;20468;-82
2021/11/23 08:29:56;;;;;;;14.80;9.85;;;3.30;78.40;;;2.39;65.02;95890.41;4942916;28;20582;-82
2021/11/23 08:32:23;;;;;;;13.85;9.95;;;3.30;78.40;;;2.50;65.33;95893.94;4943469;28;20203;-83
2021/11/23 08:34:51;;;;;;;13.98;9.52;;;3.30;78.30;;;2.53;65.33;95896.31;4944192;28;20219;-82
2021/11/23 08:37:18;;;;;;;12.95;10.38;;;3.40;78.40;;;2.58;65.13;95898.56;4942555;28;20617;-82
2021/11/23 08:39:45;;;;;;;13.55;9.45;;;3.40;78.40;;;2.60;65.31;95900.06;4966430;28;20225;-82
2021/11/23 08:42:17;;;;;;;13.73;9.32;;;3.40;78.40;;;2.67;65.15;95903.00;4943667;28;20676;-83
2021/11/23 08:44:45;;;;;;;12.63;8.88;;;3.50;78.50;;;2.68;65.24;95902.88;4960259;28;20223;-83
2021/11/23 08:47:12;;;;;;;10.43;8.68;;;3.50;78.50;;;2.76;65.00;95906.66;4957699;28;20191;-81
2021/11/23 08:49:40;;;;;;;11.23;9.55;;;3.50;78.40;;;2.76;64.96;95902.31;4935872;28;20294;-82
2021/11/23 08:52:08;;;;;;;12.02;9.68;;;3.70;78.40;;;2.82;64.60;95903.56;4936928;28;20266;-82
2021/11/23 08:54:36;;;;;;;12.98;10.07;;;3.70;78.50;;;2.85;64.89;95906.75;4933705;28;20234;-81
2021/11/23 08:57:05;;;;;;;12.05;8.68;;;3.60;78.40;;;2.91;64.75;95894.28;4923921;29;20211;-83
2021/11/23 08:59:37;;;;;;;11.30;9.02;;;3.70;78.30;;;2.93;64.74;95900.16;4937195;28;20254;-82
2021/11/23 09:02:06;;;;;;;9.82;7.93;;;3.80;78.30;;;2.97;64.63;95904.16;4942784;28;20708;-81
2021/11/23 09:04:36;;;;;;;12.90;8.50;;;3.70;78.20;;;3.00;64.72;95899.56;4945013;28;20218;-82
2021/11/23 09:07:07;;;;;;;10.23;7.97;;;3.80;78.20;;;3.07;64.31;95901.69;4958838;28;20203;-82
2021/11/23 09:09:41;;;;;;;9.98;7.82;;;3.80;78.10;;;3.11;64.41;95905.66;4958932;28;20215;-83
2021/11/23 09:12:14;;;;;;;10.15;7.70;;;3.90;78.20;;;3.15;64.76;95902.72;4954017;28;20183;-82
2021/11/23 09:14:41;;;;;;;9.07;7.25;;;3.90;78.20;;;3.27;64.60;95915.66;4952130;28;20755;-82
2021/11/23 09:17:09;;;;;;;9.93;7.72;;;3.90;78.20;;;3.29;64.40;95917.16;4958656;28;20708;-82
2021/11/23 09:19:36;;;;;;;8.68;6.90;;;4.00;78.30;;;3.37;64.62;95914.00;4941954;28;20222;-82
2021/11/23 09:22:04;;;;;;;7.90;6.43;;;4.00;78.40;;;3.44;64.46;95907.38;4941755;28;20195;-85
2021/11/23 09:24:33;;;;;;;8.77;7.20;;;4.10;78.40;;;3.56;64.62;95920.28;4944711;28;20598;-82
2021/11/23 09:27:00;;;;;;;9.25;7.20;;;4.20;78.50;;;3.63;64.72;95919.66;4936631;28;20753;-84
2021/11/23 09:29:27;;;;;;;9.98;7.45;;;4.20;78.40;;;3.69;64.35;95921.75;4934208;28;20219;-83
2021/11/23 09:31:54;;;;;;;8.00;7.10;;;4.30;78.40;;;3.70;63.55;95907.03;4942168;28;20226;-84
2021/11/23 09:34:23;;;;;;;8.02;7.25;;;4.30;78.20;;;3.77;63.46;95909.94;4945032;28;20305;-84
2021/11/23 09:36:55;;;;;;;10.20;7.20;;;4.40;78.10;;;3.84;63.58;95906.75;4938395;29;20258;-83
2021/11/23 09:39:23;;;;;;;8.77;7.20;;;4.40;78.00;;;3.84;63.37;95905.91;4971513;28;20583;-84
2021/11/23 09:41:51;;;;;;;7.65;6.13;;;4.50;77.80;;;3.95;63.54;95916.22;4955156;28;20249;-84
2021/11/23 09:44:19;;;;;;;10.23;6.63;;;4.60;77.80;;;4.04;63.74;95919.00;4942322;28;20301;-83
2021/11/23 09:46:46;;;;;;;7.68;6.88;;;4.60;77.90;;;4.12;63.39;95932.19;4929161;29;20251;-84
2021/11/23 09:49:14;;;;;;;9.18;6.88;;;4.70;78.00;;;4.13;62.78;95916.47;4932268;28;20245;-82
2021/11/23 09:51:42;;;;;;;10.57;7.25;;;4.80;77.70;;;4.12;62.29;95911.41;4957460;28;20724;-83
2021/11/23 09:54:11;;;;;;;8.43;6.82;;;4.80;77.40;;;4.22;62.63;95908.88;4946027;28;20701;-83
2021/11/23 09:56:41;;;;;;;7.53;6.65;;;4.80;78.20;;;4.26;62.74;95905.06;4958384;28;20210;-84
2021/11/23 09:59:10;;;;;;;8.20;6.20;;;4.90;77.40;;;4.30;62.52;95899.50;4958723;28;20269;-83
2021/11/23 10:01:54;;;;;;;7.53;6.55;;;4.90;77.50;;;4.31;61.98;95890.75;4958114;28;20230;-83
2021/11/23 10:04:25;;;;;;;8.65;6.55;;;5.00;77.00;;;4.28;61.39;95882.41;4958299;28;20314;-83
2021/11/23 10:07:06;;;;;;;7.40;5.82;;;5.10;76.70;;;4.29;61.24;95887.47;4942336;28;20297;-84
2021/11/23 10:09:39;;;;;;;7.90;6.28;;;5.00;76.50;;;4.28;61.26;95892.78;4957939;28;20218;-83
2021/11/23 10:12:30;;;;;;;7.65;6.00;;;5.00;76.30;;;4.24;61.46;95879.25;4958856;28;20198;-83
2021/11/23 10:15:11;;;;;;;7.05;5.57;;;5.10;76.30;;;4.31;61.52;95885.56;4957061;28;20226;-83
2021/11/23 10:17:42;;;;;;;6.18;5.03;;;5.10;76.40;;;4.31;61.09;95882.16;4957803;28;20199;-83
2021/11/23 10:21:01;;;;;;;8.52;5.57;;;5.10;76.10;;;4.30;61.31;95883.91;4954020;28;20228;-83
2021/11/23 10:23:47;;;;;;;7.15;5.88;;;5.10;76.00;;;4.30;61.24;95885.69;4952533;28;20215;-83
2021/11/23 10:26:27;;;;;;;5.93;5.30;;;5.10;76.00;;;4.29;60.66;95876.25;4942627;28;20219;-82
2021/11/23 10:29:06;;;;;;;7.07;5.28;;;5.10;75.60;;;4.25;60.49;95878.28;4941734;28;20242;-83
2021/11/23 10:31:39;;;;;;;6.93;5.80;;;5.10;75.70;;;4.23;60.39;95875.00;4939505;28;20197;-82
2021/11/23 10:34:18;;;;;;;7.20;5.78;;;5.10;75.50;;;4.26;60.93;95876.50;4939705;28;20326;-82